Terminal Aerodrome Forecast
Issued by NWS Wilmington, OH

Current Version | Previous Version | Text Only | Print | Product List | Glossary Off
Versions: 1 2 3 4 5 6 7 8 9 10 11 12 13 14 15 16 17 18 19 20 21

262
FTUS41 KILN 222343
TAFDAY
TAF
KDAY 222343Z 2300/2324 17016G24KT P6SM VCSH OVC025
      TEMPO 2300/2304 4SM -SHRA
     FM230400 22012G20KT P6SM SCT150
     FM230800 22012G22KT P6SM VCSH BKN050
     FM231100 22016G28KT P6SM VCSH OVC022
     FM231800 25018G28KT P6SM VCSH OVC022=

USA.gov is the U.S. government's official web portal to all federal, state and local government web resources and services.